createdAt,value
2022-10-09T00:01:09.091Z,1.15
2022-10-09T00:03:37.772Z,1.15
2022-10-09T00:06:06.063Z,0.80
2022-10-09T00:08:35.241Z,1.20
2022-10-09T00:11:07.578Z,1.00
2022-10-09T00:13:34.738Z,0.93
2022-10-09T00:16:06.468Z,1.27
2022-10-09T00:18:33.909Z,1.20
2022-10-09T00:21:00.901Z,1.33
2022-10-09T00:23:27.932Z,1.77
2022-10-09T00:25:57.502Z,1.58
2022-10-09T00:28:26.201Z,1.65
2022-10-09T00:30:53.368Z,1.75
2022-10-09T00:33:21.210Z,2.17
2022-10-09T00:35:48.952Z,1.67
2022-10-09T00:38:15.943Z,1.40
2022-10-09T00:40:42.873Z,1.30
2022-10-09T00:43:19.627Z,1.80
2022-10-09T00:45:55.813Z,1.52
2022-10-09T00:48:23.121Z,1.85
2022-10-09T00:50:53.665Z,1.20
2022-10-09T00:53:21.851Z,1.30
2022-10-09T00:55:49.281Z,1.20
2022-10-09T00:58:16.546Z,1.67
2022-10-09T01:00:43.529Z,1.00
2022-10-09T01:03:10.656Z,1.45
2022-10-09T01:06:08.429Z,6.00
2022-10-09T01:08:42.426Z,1.48
2022-10-09T01:11:26.473Z,1.10
2022-10-09T01:14:00.551Z,1.95
2022-10-09T01:16:29.861Z,1.65
2022-10-09T01:19:27.392Z,1.95
2022-10-09T01:22:24.992Z,1.58
2022-10-09T01:25:29.574Z,1.60
2022-10-09T01:27:57.085Z,1.70
2022-10-09T01:30:23.951Z,2.30
2022-10-09T01:32:53.132Z,1.70
2022-10-09T01:35:20.951Z,1.23
2022-10-09T01:37:47.981Z,1.90
2022-10-09T01:40:16.934Z,1.48
2022-10-09T01:42:46.577Z,1.80
2022-10-09T01:45:15.020Z,1.73
2022-10-09T01:47:42.186Z,2.05
2022-10-09T01:50:30.394Z,2.42
2022-10-09T01:53:01.503Z,2.45
2022-10-09T01:55:47.125Z,2.03
2022-10-09T01:58:40.751Z,2.03
2022-10-09T02:01:33.294Z,1.45
2022-10-09T02:04:01.671Z,1.50
2022-10-09T02:06:29.092Z,1.83
2022-10-09T02:08:56.319Z,1.55
2022-10-09T02:11:24.549Z,1.67
2022-10-09T02:13:53.111Z,1.60
2022-10-09T02:16:24.927Z,1.83
2022-10-09T02:21:31.781Z,2.50
2022-10-09T02:26:25.850Z,2.17
2022-10-09T02:28:52.862Z,2.55
2022-10-09T02:31:29.324Z,2.38
2022-10-09T02:34:01.586Z,2.55
2022-10-09T02:36:29.708Z,2.40
2022-10-09T02:38:57.421Z,2.05
2022-10-09T02:41:25.242Z,2.00
2022-10-09T02:43:52.253Z,2.30
2022-10-09T02:46:19.575Z,2.40
2022-10-09T02:48:46.591Z,2.35
2022-10-09T02:51:13.771Z,1.77
2022-10-09T02:53:41.007Z,2.30
2022-10-09T02:56:07.949Z,2.17
2022-10-09T02:58:35.727Z,2.10
2022-10-09T03:01:03.733Z,2.45
2022-10-09T03:03:30.789Z,2.20
2022-10-09T03:06:11.522Z,2.30
2022-10-09T03:08:40.462Z,2.40
2022-10-09T03:11:07.903Z,2.38
2022-10-09T03:13:34.973Z,2.15
2022-10-09T03:16:06.466Z,2.47
2022-10-09T03:18:33.351Z,2.60
2022-10-09T03:21:00.504Z,2.80
2022-10-09T03:23:27.433Z,3.03
2022-10-09T03:26:02.592Z,2.78
2022-10-09T03:28:29.916Z,2.45
2022-10-09T03:30:57.029Z,3.60
2022-10-09T03:33:24.001Z,3.30
2022-10-09T03:35:51.002Z,3.30
2022-10-09T03:38:17.993Z,3.53
2022-10-09T03:40:45.184Z,3.50
2022-10-09T03:43:12.062Z,3.75
2022-10-09T03:45:43.191Z,3.58
2022-10-09T03:48:11.439Z,3.23
2022-10-09T03:50:39.610Z,3.60
2022-10-09T03:53:08.142Z,3.58
2022-10-09T03:55:35.411Z,3.30
2022-10-09T03:58:02.561Z,3.13
2022-10-09T04:00:30.433Z,3.35
2022-10-09T04:02:57.671Z,3.85
2022-10-09T04:05:24.691Z,3.58
2022-10-09T04:07:51.729Z,3.50
2022-10-09T04:10:18.740Z,3.65
2022-10-09T04:12:45.807Z,3.80
2022-10-09T04:15:12.805Z,3.85
2022-10-09T04:17:39.941Z,4.30
2022-10-09T04:20:07.301Z,4.30
2022-10-09T04:22:34.638Z,4.07
2022-10-09T04:25:01.520Z,4.25
2022-10-09T04:27:28.486Z,4.22
2022-10-09T04:29:55.371Z,4.00
2022-10-09T04:32:22.300Z,3.83
2022-10-09T04:34:49.182Z,3.50
2022-10-09T04:37:16.153Z,3.50
2022-10-09T04:39:43.091Z,3.38
2022-10-09T04:42:09.940Z,3.92
2022-10-09T04:44:36.862Z,3.58
2022-10-09T04:47:05.419Z,3.80
2022-10-09T04:49:34.032Z,3.55
2022-10-09T04:52:00.924Z,3.50
2022-10-09T04:54:27.912Z,3.75
2022-10-09T04:56:54.867Z,3.50
2022-10-09T04:59:21.777Z,3.28
2022-10-09T05:01:49.105Z,3.10
2022-10-09T05:04:16.021Z,3.65
2022-10-09T05:06:42.892Z,3.30
2022-10-09T05:09:09.811Z,3.33
2022-10-09T05:11:40.496Z,3.15
2022-10-09T05:14:09.357Z,3.58
2022-10-09T05:17:01.067Z,3.20
2022-10-09T05:19:23.532Z,3.72
2022-10-09T05:21:50.434Z,4.90
2022-10-09T05:24:17.381Z,4.00
2022-10-09T05:26:44.409Z,4.20
2022-10-09T05:29:11.307Z,4.90
2022-10-09T05:31:38.242Z,5.10
2022-10-09T05:34:05.362Z,7.45
2022-10-09T05:36:32.527Z,9.15
2022-10-09T05:39:01.367Z,10.20
2022-10-09T05:41:29.868Z,6.18
2022-10-09T05:44:01.481Z,4.93
2022-10-09T05:46:30.033Z,4.68
2022-10-09T05:49:00.209Z,4.00
2022-10-09T05:51:32.102Z,4.60
2022-10-09T05:56:39.240Z,5.10
2022-10-09T05:59:11.450Z,4.60
2022-10-09T06:01:43.983Z,4.63
2022-10-09T06:04:16.697Z,3.55
2022-10-09T06:06:44.893Z,4.38
2022-10-09T06:09:12.351Z,3.75
2022-10-09T06:11:40.132Z,4.28
2022-10-09T06:14:09.166Z,4.00
2022-10-09T06:16:38.522Z,3.50
2022-10-09T06:19:06.501Z,2.88
2022-10-09T06:21:34.325Z,2.78
2022-10-09T06:24:02.594Z,2.40
2022-10-09T06:26:30.410Z,1.85
2022-10-09T06:28:59.025Z,2.40
2022-10-09T06:31:28.822Z,1.92
2022-10-09T06:34:00.466Z,2.88
2022-10-09T06:36:33.880Z,2.08
2022-10-09T06:39:03.641Z,2.40
2022-10-09T06:41:31.270Z,2.42
2022-10-09T06:44:00.763Z,2.05
2022-10-09T06:46:31.498Z,2.03
2022-10-09T06:49:00.009Z,1.80
2022-10-09T06:51:30.586Z,1.70
2022-10-09T06:54:00.438Z,1.77
2022-10-09T06:56:29.043Z,2.20
2022-10-09T06:58:56.508Z,2.05
2022-10-09T07:01:27.032Z,2.70
2022-10-09T07:03:56.719Z,1.88
2022-10-09T07:06:31.848Z,4.03
2022-10-09T07:09:04.641Z,2.30
2022-10-09T07:11:37.173Z,1.80
2022-10-09T07:14:06.073Z,2.17
2022-10-09T07:16:36.070Z,1.95
2022-10-09T07:19:07.500Z,1.55
2022-10-09T07:21:38.018Z,3.28
2022-10-09T07:24:07.104Z,1.90
2022-10-09T07:26:36.272Z,1.95
2022-10-09T07:29:04.852Z,1.50
2022-10-09T07:31:31.872Z,2.40
2022-10-09T07:33:59.250Z,1.58
2022-10-09T07:36:26.549Z,2.08
2022-10-09T07:38:56.092Z,1.55
2022-10-09T07:41:25.470Z,1.95
2022-10-09T07:43:52.880Z,1.45
2022-10-09T07:46:21.674Z,1.23
2022-10-09T07:48:49.297Z,1.48
2022-10-09T07:51:24.544Z,1.60
2022-10-09T07:53:52.150Z,1.40
2022-10-09T07:56:21.385Z,1.95
2022-10-09T07:58:53.386Z,2.13
2022-10-09T08:03:48.876Z,1.20
2022-10-09T08:06:16.465Z,1.48
2022-10-09T08:08:44.289Z,3.90
2022-10-09T08:11:13.788Z,2.28
2022-10-09T08:13:41.391Z,2.50
2022-10-09T08:16:08.830Z,1.65
2022-10-09T08:18:36.714Z,1.80
2022-10-09T08:21:15.254Z,1.42
2022-10-09T08:23:42.884Z,2.75
2022-10-09T08:26:23.481Z,2.05
2022-10-09T08:28:53.005Z,1.85
2022-10-09T08:31:21.150Z,1.48
2022-10-09T08:33:52.175Z,1.52
2022-10-09T08:36:19.406Z,1.52
2022-10-09T08:38:47.814Z,1.83
2022-10-09T08:41:40.352Z,2.40
2022-10-09T08:44:23.387Z,2.15
2022-10-09T08:47:08.792Z,1.77
2022-10-09T08:49:57.662Z,1.38
2022-10-09T08:52:40.451Z,1.30
2022-10-09T08:55:17.016Z,1.80
2022-10-09T08:57:45.567Z,2.38
2022-10-09T09:00:17.103Z,2.30
2022-10-09T09:03:04.698Z,1.77
2022-10-09T09:05:44.267Z,1.40
2022-10-09T09:08:23.354Z,1.30
2022-10-09T09:11:02.508Z,1.50
2022-10-09T09:13:39.983Z,1.40
2022-10-09T09:16:15.526Z,1.77
2022-10-09T09:18:50.720Z,2.13
2022-10-09T09:21:38.189Z,0.90
2022-10-09T09:24:20.654Z,1.00
2022-10-09T09:26:51.291Z,1.35
2022-10-09T09:29:24.284Z,1.30
2022-10-09T09:31:55.416Z,1.50
2022-10-09T09:34:29.355Z,1.25
2022-10-09T09:36:58.503Z,2.08
2022-10-09T09:42:18.165Z,1.40
2022-10-09T09:44:50.322Z,2.58
2022-10-09T09:47:28.273Z,2.53
2022-10-09T09:49:58.106Z,1.10
2022-10-09T09:52:27.596Z,1.08
2022-10-09T09:54:57.275Z,1.40
2022-10-09T09:57:31.245Z,1.10
2022-10-09T10:00:09.149Z,1.48
2022-10-09T10:02:36.885Z,1.88
2022-10-09T10:05:17.262Z,1.70
2022-10-09T10:07:44.294Z,2.28
2022-10-09T10:10:25.738Z,2.00
2022-10-09T10:12:53.225Z,1.77
2022-10-09T10:15:23.772Z,1.50
2022-10-09T10:18:06.302Z,1.70
2022-10-09T10:20:42.476Z,1.30
2022-10-09T10:23:23.317Z,1.50
2022-10-09T10:25:53.403Z,2.17
2022-10-09T10:28:25.099Z,1.90
2022-10-09T10:30:52.400Z,1.60
2022-10-09T10:33:29.076Z,0.95
2022-10-09T10:35:56.884Z,1.52
2022-10-09T10:38:30.192Z,1.00
2022-10-09T10:41:05.508Z,0.70
2022-10-09T10:43:44.535Z,1.00
2022-10-09T10:46:23.825Z,0.70
2022-10-09T10:48:51.796Z,1.00
2022-10-09T10:51:29.276Z,1.98
2022-10-09T10:54:23.790Z,1.10
2022-10-09T10:56:53.697Z,1.25
2022-10-09T10:59:39.867Z,1.20
2022-10-09T11:02:09.909Z,1.00
2022-10-09T11:05:03.380Z,1.05
2022-10-09T11:07:33.310Z,2.17
2022-10-09T11:10:24.040Z,1.17
2022-10-09T11:13:15.523Z,1.02
2022-10-09T11:16:00.918Z,1.27
2022-10-09T11:18:40.923Z,1.42
2022-10-09T11:21:21.506Z,1.65
2022-10-09T11:24:12.113Z,0.93
2022-10-09T11:27:03.642Z,1.50
2022-10-09T11:29:38.344Z,1.48
2022-10-09T11:32:20.498Z,1.08
2022-10-09T11:34:53.119Z,1.50
2022-10-09T11:37:24.101Z,2.08
2022-10-09T11:39:51.475Z,1.05
2022-10-09T11:42:24.579Z,1.90
2022-10-09T11:45:01.630Z,1.13
2022-10-09T11:47:40.189Z,1.35
2022-10-09T11:50:44.634Z,1.40
2022-10-09T11:53:14.648Z,1.33
2022-10-09T11:55:42.930Z,4.25
2022-10-09T11:58:24.334Z,4.07
2022-10-09T12:00:54.182Z,1.20
2022-10-09T12:03:25.617Z,4.50
2022-10-09T12:05:52.751Z,0.80
2022-10-09T12:08:27.158Z,0.90
2022-10-09T12:11:17.477Z,1.98
2022-10-09T12:14:04.449Z,0.98
2022-10-09T12:16:37.241Z,0.82
2022-10-09T12:19:16.546Z,1.00
2022-10-09T12:21:46.755Z,1.05
2022-10-09T12:24:17.163Z,0.85
2022-10-09T12:26:44.532Z,1.13
2022-10-09T12:29:20.405Z,1.60
2022-10-09T12:31:47.747Z,1.55
2022-10-09T12:34:31.248Z,1.20
2022-10-09T12:37:11.582Z,0.90
2022-10-09T12:39:39.229Z,0.82
2022-10-09T12:42:10.021Z,1.63
2022-10-09T12:44:40.132Z,1.60
2022-10-09T12:47:20.548Z,0.68
2022-10-09T12:50:18.921Z,1.20
2022-10-09T12:52:54.911Z,1.00
2022-10-09T12:55:36.341Z,1.60
2022-10-09T12:58:15.654Z,1.13
2022-10-09T13:00:43.125Z,1.50
2022-10-09T13:03:28.625Z,0.65
2022-10-09T13:05:57.273Z,0.45
2022-10-09T13:08:27.288Z,0.50
2022-10-09T13:10:54.690Z,0.80
2022-10-09T13:13:28.413Z,1.13
2022-10-09T13:16:06.357Z,0.80
2022-10-09T13:18:33.408Z,1.42
2022-10-09T13:21:24.849Z,1.35
2022-10-09T13:23:52.377Z,1.35
2022-10-09T13:26:25.455Z,1.65
2022-10-09T13:28:53.377Z,1.50
2022-10-09T13:31:20.831Z,1.33
2022-10-09T13:33:48.749Z,2.88
2022-10-09T13:36:17.234Z,3.17
2022-10-09T13:38:44.744Z,1.88
2022-10-09T13:41:14.883Z,2.67
2022-10-09T13:43:42.662Z,3.25
2022-10-09T13:46:10.031Z,3.10
2022-10-09T13:48:38.142Z,3.53
2022-10-09T13:51:06.557Z,1.92
2022-10-09T13:53:33.900Z,2.50
2022-10-09T13:56:01.361Z,2.47
2022-10-09T13:58:29.005Z,1.60
2022-10-09T14:00:56.081Z,1.20
2022-10-09T14:03:23.227Z,1.30
2022-10-09T14:05:50.255Z,1.33
2022-10-09T14:08:17.327Z,1.00
2022-10-09T14:10:44.689Z,1.30
2022-10-09T14:13:11.829Z,1.08
2022-10-09T14:15:40.273Z,2.30
2022-10-09T14:18:08.134Z,1.20
2022-10-09T14:20:35.552Z,1.40
2022-10-09T14:23:02.575Z,0.70
2022-10-09T14:25:29.884Z,0.70
2022-10-09T14:27:56.845Z,1.20
2022-10-09T14:30:23.932Z,0.90
2022-10-09T14:32:51.407Z,1.20
2022-10-09T14:35:21.531Z,1.75
2022-10-09T14:37:49.088Z,1.80
2022-10-09T14:40:16.101Z,2.00
2022-10-09T14:42:43.082Z,1.35
2022-10-09T14:45:10.632Z,2.70
2022-10-09T14:47:37.754Z,3.00
2022-10-09T14:50:05.379Z,3.03
2022-10-09T14:52:32.612Z,3.00
2022-10-09T14:54:59.560Z,3.17
2022-10-09T14:57:30.251Z,3.75
2022-10-09T15:00:00.062Z,3.00
2022-10-09T15:02:27.039Z,2.40
2022-10-09T15:04:54.224Z,2.10
2022-10-09T15:07:21.285Z,4.38
2022-10-09T15:09:48.474Z,1.98
2022-10-09T15:12:15.404Z,1.75
2022-10-09T15:14:42.724Z,2.00
2022-10-09T15:17:09.838Z,2.00
2022-10-09T15:19:37.933Z,3.38
2022-10-09T15:22:05.252Z,4.15
2022-10-09T15:24:32.376Z,4.32
2022-10-09T15:26:59.364Z,3.85
2022-10-09T15:29:26.455Z,3.45
2022-10-09T15:31:53.474Z,5.28
2022-10-09T15:34:20.674Z,6.22
2022-10-09T15:36:47.654Z,4.55
2022-10-09T15:39:15.062Z,4.85
2022-10-09T15:41:43.341Z,5.88
2022-10-09T15:44:19.513Z,6.75
2022-10-09T15:46:47.493Z,5.78
2022-10-09T15:49:14.613Z,5.72
2022-10-09T15:51:42.078Z,5.80
2022-10-09T15:54:10.132Z,6.70
2022-10-09T15:56:39.840Z,9.73
2022-10-09T15:59:09.526Z,9.30
2022-10-09T16:01:37.479Z,8.57
2022-10-09T16:04:04.939Z,9.55
2022-10-09T16:06:32.695Z,9.55
2022-10-09T16:09:01.500Z,9.93
2022-10-09T16:11:28.766Z,12.07
2022-10-09T16:13:56.498Z,13.63
2022-10-09T16:16:26.074Z,14.05
2022-10-09T16:18:53.949Z,14.77
2022-10-09T16:21:26.831Z,11.13
2022-10-09T16:23:58.407Z,6.60
2022-10-09T16:26:28.580Z,11.52
2022-10-09T16:28:55.844Z,15.02
2022-10-09T16:31:25.998Z,12.68
2022-10-09T16:33:53.515Z,13.60
2022-10-09T16:36:20.767Z,20.35
2022-10-09T16:38:48.195Z,14.27
2022-10-09T16:41:18.491Z,32.28
2022-10-09T16:43:47.090Z,23.98
2022-10-09T16:46:22.869Z,19.85
2022-10-09T16:48:51.495Z,17.27
2022-10-09T16:51:22.693Z,19.13
2022-10-09T16:53:51.587Z,20.70
2022-10-09T16:56:20.683Z,21.73
2022-10-09T16:58:48.293Z,22.45
2022-10-09T17:01:15.952Z,22.73
2022-10-09T17:03:43.114Z,26.20
2022-10-09T17:06:16.854Z,31.55
2022-10-09T17:08:44.472Z,24.40
2022-10-09T17:11:14.663Z,24.98
2022-10-09T17:13:42.050Z,22.65
2022-10-09T17:16:17.832Z,22.42
2022-10-09T17:18:45.968Z,22.63
2022-10-09T17:21:14.106Z,23.50
2022-10-09T17:23:41.109Z,22.35
2022-10-09T17:26:21.448Z,22.85
2022-10-09T17:28:49.338Z,22.63
2022-10-09T17:31:19.135Z,23.55
2022-10-09T17:33:48.554Z,23.23
2022-10-09T17:36:18.467Z,24.35
2022-10-09T17:38:45.904Z,20.73
2022-10-09T17:41:14.211Z,21.00
2022-10-09T17:43:41.675Z,46.92
2022-10-09T17:46:12.777Z,54.72
2022-10-09T17:48:44.718Z,47.80
2022-10-09T17:51:17.237Z,44.50
2022-10-09T17:56:46.859Z,39.55
2022-10-09T17:59:15.642Z,37.83
2022-10-09T18:01:44.104Z,42.05
2022-10-09T18:04:20.057Z,38.95
2022-10-09T18:06:47.288Z,41.58
2022-10-09T18:09:14.421Z,45.95
2022-10-09T18:11:41.691Z,39.47
2022-10-09T18:14:10.042Z,33.53
2022-10-09T18:16:38.733Z,37.15
2022-10-09T18:19:14.766Z,38.38
2022-10-09T18:21:45.062Z,35.88
2022-10-09T18:24:12.943Z,34.75
2022-10-09T18:26:40.654Z,31.38
2022-10-09T18:29:08.050Z,31.98
2022-10-09T18:31:35.315Z,31.13
2022-10-09T18:34:02.283Z,31.52
2022-10-09T18:36:31.879Z,31.58
2022-10-09T18:39:01.910Z,37.53
2022-10-09T18:41:29.061Z,44.40
2022-10-09T18:44:00.064Z,43.78
2022-10-09T18:46:34.702Z,44.33
2022-10-09T18:49:02.592Z,47.75
2022-10-09T18:51:29.565Z,49.85
2022-10-09T18:53:59.996Z,50.00
2022-10-09T18:56:28.054Z,48.13
2022-10-09T18:58:55.214Z,46.78
2022-10-09T19:01:22.369Z,48.55
2022-10-09T19:03:50.377Z,46.72
2022-10-09T19:06:18.751Z,49.95
2022-10-09T19:08:46.484Z,54.25
2022-10-09T19:11:14.739Z,49.28
2022-10-09T19:13:42.758Z,48.72
2022-10-09T19:16:10.120Z,56.30
2022-10-09T19:18:37.824Z,57.50
2022-10-09T19:21:05.875Z,57.20
2022-10-09T19:23:32.879Z,54.97
2022-10-09T19:26:00.169Z,54.35
2022-10-09T19:28:31.191Z,55.35
2022-10-09T19:31:02.369Z,52.17
2022-10-09T19:33:29.763Z,54.53
2022-10-09T19:35:58.013Z,51.15
2022-10-09T19:38:27.937Z,53.45
2022-10-09T19:40:55.549Z,53.47
2022-10-09T19:43:24.472Z,50.90
2022-10-09T19:46:02.503Z,52.80
2022-10-09T19:48:30.596Z,47.55
2022-10-09T19:50:58.366Z,50.25
2022-10-09T19:53:25.715Z,49.83
2022-10-09T19:55:54.021Z,40.15
2022-10-09T19:58:23.133Z,38.45
2022-10-09T20:00:52.698Z,38.58
2022-10-09T20:03:22.758Z,35.63
2022-10-09T20:06:01.573Z,42.97
2022-10-09T20:08:34.574Z,40.38
2022-10-09T20:11:09.211Z,38.47
2022-10-09T20:13:43.570Z,37.30
2022-10-09T20:16:21.746Z,44.08
2022-10-09T20:18:49.821Z,49.90
2022-10-09T20:21:18.221Z,52.08
2022-10-09T20:23:45.609Z,51.85
2022-10-09T20:26:15.814Z,53.53
2022-10-09T20:28:44.179Z,51.95
2022-10-09T20:31:14.931Z,52.13
2022-10-09T20:33:42.613Z,52.05
2022-10-09T20:36:18.922Z,53.22
2022-10-09T20:38:47.278Z,44.63
2022-10-09T20:41:15.516Z,53.10
2022-10-09T20:43:42.515Z,57.13
2022-10-09T20:46:14.808Z,52.90
2022-10-09T20:48:42.781Z,51.28
2022-10-09T20:51:10.185Z,56.95
2022-10-09T20:53:37.235Z,59.63
2022-10-09T20:56:06.742Z,59.78
2022-10-09T20:58:34.315Z,63.78
2022-10-09T21:01:05.077Z,58.47
2022-10-09T21:03:32.206Z,62.20
2022-10-09T21:05:59.135Z,56.30
2022-10-09T21:08:26.421Z,60.38
2022-10-09T21:10:53.533Z,63.47
2022-10-09T21:13:20.774Z,60.90
2022-10-09T21:15:49.029Z,60.58
2022-10-09T21:18:17.700Z,59.45
2022-10-09T21:20:45.878Z,60.25
2022-10-09T21:23:14.945Z,67.60
2022-10-09T21:25:54.120Z,60.63
2022-10-09T21:28:22.123Z,68.82
2022-10-09T21:30:49.377Z,65.13
2022-10-09T21:33:17.147Z,60.72
2022-10-09T21:35:46.915Z,55.65
2022-10-09T21:38:20.115Z,55.83
2022-10-09T21:40:47.157Z,59.78
2022-10-09T21:43:14.031Z,56.13
2022-10-09T21:45:41.483Z,69.15
2022-10-09T21:48:09.952Z,76.15
2022-10-09T21:50:36.973Z,70.00
2022-10-09T21:53:03.937Z,65.47
2022-10-09T21:55:31.142Z,59.80
2022-10-09T21:57:58.063Z,65.35
2022-10-09T22:00:25.377Z,62.45
2022-10-09T22:02:52.608Z,64.45
2022-10-09T22:05:19.904Z,58.40
2022-10-09T22:07:46.901Z,55.25
2022-10-09T22:10:13.818Z,61.05
2022-10-09T22:12:40.944Z,59.47
2022-10-09T22:15:08.084Z,54.42
2022-10-09T22:17:35.068Z,51.17
2022-10-09T22:20:02.378Z,48.65
2022-10-09T22:22:29.806Z,48.10
2022-10-09T22:24:56.696Z,44.15
2022-10-09T22:27:23.731Z,46.17
2022-10-09T22:29:50.764Z,45.97
2022-10-09T22:32:17.765Z,51.65
2022-10-09T22:34:44.679Z,51.55
2022-10-09T22:37:11.977Z,53.90
2022-10-09T22:39:38.982Z,53.30
2022-10-09T22:42:06.029Z,47.35
2022-10-09T22:44:32.907Z,53.08
2022-10-09T22:46:59.929Z,47.55
2022-10-09T22:49:27.569Z,49.17
2022-10-09T22:51:54.489Z,48.97
2022-10-09T22:54:22.218Z,44.50
2022-10-09T22:56:49.265Z,43.13
2022-10-09T22:59:18.461Z,42.70
2022-10-09T23:01:53.615Z,39.72
2022-10-09T23:04:21.801Z,42.60
2022-10-09T23:06:54.693Z,38.60
2022-10-09T23:09:23.630Z,40.03
2022-10-09T23:11:50.895Z,39.20
2022-10-09T23:14:18.072Z,36.53
2022-10-09T23:16:44.978Z,39.58
2022-10-09T23:19:12.304Z,40.22
2022-10-09T23:21:41.390Z,41.28
2022-10-09T23:24:09.557Z,38.25
2022-10-09T23:26:37.424Z,41.15
2022-10-09T23:29:09.387Z,38.95
2022-10-09T23:31:37.085Z,39.60
2022-10-09T23:34:05.103Z,37.47
2022-10-09T23:36:32.308Z,38.90
2022-10-09T23:39:01.268Z,39.70
2022-10-09T23:41:28.913Z,42.20
2022-10-09T23:43:55.987Z,39.20
2022-10-09T23:46:24.886Z,41.00
2022-10-09T23:48:52.713Z,37.67
2022-10-09T23:51:20.895Z,38.83
2022-10-09T23:53:48.076Z,36.55
2022-10-09T23:56:25.793Z,39.33
2022-10-09T23:58:53.677Z,38.08
